Time;durP1;ratioP1;P1;durP2;ratioP2;P2;SDS_P1;SDS_P2;PMS_P1;PMS_P2;Temp;Humidity;BMP_temperature;BMP_pressure;BME280_temperature;BME280_humidity;BME280_pressure;Samples;Min_cycle;Max_cycle;Signal;HPM_P1;HPM_P2
2022/03/03 00:00:31;;;;;;;42.67;19.50;;;;;;;3.72;40.27;100028.81;4456017;32;33609;-77
2022/03/03 00:03:01;;;;;;;35.25;16.37;;;;;;;3.45;40.44;100032.47;4455064;32;34760;-76
2022/03/03 00:05:28;;;;;;;34.97;15.52;;;;;;;3.46;40.44;100026.03;4430651;32;32957;-77
2022/03/03 00:07:56;;;;;;;27.58;13.07;;;;;;;3.55;40.65;100025.09;4456223;32;34115;-77
2022/03/03 00:10:24;;;;;;;22.42;12.43;;;;;;;3.40;40.75;100037.50;4443494;32;32775;-77
2022/03/03 00:12:52;;;;;;;24.08;11.32;;;;;;;3.27;41.11;100033.31;4443878;32;35147;-77
2022/03/03 00:15:20;;;;;;;23.58;12.57;;;;;;;3.36;41.00;100041.53;4443439;32;34429;-77
2022/03/03 00:17:48;;;;;;;24.20;12.73;;;;;;;3.40;40.65;100035.66;4456003;32;34274;-77
2022/03/03 00:20:15;;;;;;;20.50;11.25;;;;;;;3.32;40.82;100035.56;4443193;32;33238;-77
2022/03/03 00:22:44;;;;;;;22.55;12.68;;;;;;;3.33;40.89;100033.72;4443051;32;33113;-77
2022/03/03 00:25:12;;;;;;;23.08;10.93;;;;;;;3.39;40.67;100028.53;4456122;32;34582;-77
2022/03/03 00:27:40;;;;;;;22.48;12.40;;;;;;;3.19;40.94;100038.69;4430448;32;33105;-77
2022/03/03 00:30:08;;;;;;;23.30;12.10;;;;;;;3.34;40.83;100035.41;4442797;32;33645;-77
2022/03/03 00:32:40;;;;;;;22.08;11.68;;;;;;;3.25;41.14;100029.09;4442955;32;34438;-77
2022/03/03 00:35:09;;;;;;;22.37;11.57;;;;;;;3.36;40.99;100034.25;4443375;32;32435;-77
2022/03/03 00:37:40;;;;;;;25.10;12.50;;;;;;;3.22;41.78;100034.81;4456285;32;33514;-77
2022/03/03 00:40:09;;;;;;;24.25;12.82;;;;;;;3.26;41.36;100034.31;4442793;32;34701;-77
2022/03/03 00:42:37;;;;;;;22.98;12.37;;;;;;;3.26;41.23;100037.03;4455872;32;34703;-77
2022/03/03 00:45:06;;;;;;;25.65;12.57;;;;;;;3.24;41.11;100032.81;4455518;32;32654;-77
2022/03/03 00:47:33;;;;;;;22.87;11.75;;;;;;;3.24;41.26;100030.09;4469504;32;33264;-77
2022/03/03 00:50:01;;;;;;;24.98;12.20;;;;;;;3.26;41.45;100034.31;4442238;32;33959;-77
2022/03/03 00:52:29;;;;;;;20.52;11.30;;;;;;;3.22;41.52;100030.25;4468249;32;34299;-77
2022/03/03 00:55:02;;;;;;;27.02;11.88;;;;;;;3.00;41.60;100025.25;4470132;32;34689;-77
2022/03/03 00:57:31;;;;;;;25.83;12.00;;;;;;;3.07;41.84;100020.06;4455744;32;34445;-77
2022/03/03 00:59:58;;;;;;;21.62;11.48;;;;;;;2.98;41.53;100016.41;4440501;32;32965;-76
2022/03/03 01:02:26;;;;;;;21.10;11.95;;;;;;;2.93;41.86;100021.44;4453556;32;34349;-77
2022/03/03 01:04:54;;;;;;;27.08;11.93;;;;;;;2.84;42.54;100015.06;4440807;32;33713;-76
2022/03/03 01:07:24;;;;;;;24.58;12.00;;;;;;;2.80;42.61;100019.09;4453319;32;34129;-77
2022/03/03 01:09:52;;;;;;;23.10;12.37;;;;;;;2.92;42.01;100009.75;4453270;32;32297;-74
2022/03/03 01:12:20;;;;;;;24.45;12.25;;;;;;;3.09;41.70;100012.63;4467750;32;33904;-75
2022/03/03 01:14:48;;;;;;;26.58;12.45;;;;;;;2.78;42.57;100010.25;4430035;32;33469;-74
2022/03/03 01:17:15;;;;;;;24.33;12.48;;;;;;;3.01;42.00;100009.84;4444581;32;32383;-75
2022/03/03 01:19:43;;;;;;;25.50;12.52;;;;;;;2.87;42.32;100003.91;4457066;32;33992;-74
2022/03/03 01:22:11;;;;;;;22.65;12.20;;;;;;;2.59;42.78;99994.97;4457310;32;34993;-75
2022/03/03 01:24:38;;;;;;;24.52;12.65;;;;;;;2.65;43.03;100001.62;4444471;32;32992;-74
2022/03/03 01:27:06;;;;;;;26.02;12.95;;;;;;;2.76;42.73;100001.41;4444694;32;33375;-75
2022/03/03 01:29:34;;;;;;;26.20;12.98;;;;;;;2.84;42.40;99995.25;4444446;32;33589;-74
2022/03/03 01:32:02;;;;;;;21.77;12.10;;;;;;;2.73;42.52;99988.16;4444499;32;34389;-75
2022/03/03 01:34:30;;;;;;;26.83;13.00;;;;;;;3.00;41.99;99981.03;4444296;32;33998;-75
2022/03/03 01:36:59;;;;;;;30.35;13.70;;;;;;;2.90;42.37;99976.50;4431928;32;32622;-74
2022/03/03 01:39:26;;;;;;;25.83;13.40;;;;;;;2.83;42.71;99983.53;4431598;32;33018;-74
2022/03/03 01:41:54;;;;;;;25.33;13.27;;;;;;;2.68;42.86;99981.50;4471175;32;34362;-75
2022/03/03 01:44:22;;;;;;;21.90;12.13;;;;;;;2.68;42.77;99981.50;4444360;32;34120;-75
2022/03/03 01:46:55;;;;;;;27.75;13.55;;;;;;;2.73;42.67;99974.62;4457012;32;31872;-74
2022/03/03 01:49:25;;;;;;;29.10;13.35;;;;;;;2.64;42.94;99972.81;4444415;32;33942;-74
2022/03/03 01:51:53;;;;;;;25.92;12.95;;;;;;;2.65;42.80;99967.25;4457280;32;34459;-75
2022/03/03 01:54:23;;;;;;;22.60;12.23;;;;;;;2.65;42.52;99967.25;4444364;32;34119;-75
2022/03/03 01:56:51;;;;;;;26.25;13.82;;;;;;;2.65;42.47;99966.41;4441536;32;33277;-74
2022/03/03 01:59:19;;;;;;;24.10;13.05;;;;;;;2.65;42.61;99961.81;4454365;32;34239;-74
2022/03/03 02:01:47;;;;;;;27.45;13.90;;;;;;;2.49;43.03;99960.81;4454368;32;35423;-74
2022/03/03 02:04:18;;;;;;;25.25;13.25;;;;;;;2.52;42.82;99955.94;4428900;32;32432;-74
2022/03/03 02:06:46;;;;;;;31.02;13.82;;;;;;;2.63;42.68;99957.56;4428930;32;34255;-74
2022/03/03 02:09:13;;;;;;;41.55;18.20;;;;;;;2.35;43.25;99964.00;4441268;32;34400;-74
2022/03/03 02:11:41;;;;;;;60.45;25.65;;;;;;;2.20;43.94;99956.37;4429047;32;34404;-74
2022/03/03 02:14:08;;;;;;;49.85;22.52;;;;;;;2.49;43.00;99949.97;4428392;32;32854;-74
2022/03/03 02:16:37;;;;;;;39.58;18.55;;;;;;;2.40;43.20;99957.16;4428132;32;32530;-74
2022/03/03 02:19:06;;;;;;;39.50;15.50;;;;;;;2.42;43.44;99954.28;4440963;32;34574;-74
2022/03/03 02:21:34;;;;;;;29.15;14.43;;;;;;;2.54;43.13;99947.66;4441387;32;34633;-74
2022/03/03 02:24:01;;;;;;;26.62;14.23;;;;;;;2.53;42.91;99940.53;4441377;32;34881;-75
2022/03/03 02:26:30;;;;;;;28.38;14.27;;;;;;;2.40;43.10;99931.91;4427715;32;32208;-75
2022/03/03 02:28:57;;;;;;;47.03;19.85;;;;;;;2.43;43.04;99939.75;4428369;32;32312;-74
2022/03/03 02:31:25;;;;;;;52.22;23.87;;;;;;;2.33;43.57;99941.66;4441278;32;34459;-74
2022/03/03 02:33:53;;;;;;;40.53;18.50;;;;;;;2.09;44.17;99937.59;4441647;32;33767;-74
2022/03/03 02:36:27;;;;;;;49.55;22.23;;;;;;;2.09;44.28;99937.59;4429000;32;34139;-74
2022/03/03 02:38:57;;;;;;;47.75;21.05;;;;;;;2.14;44.12;99929.03;4441391;32;33376;-74
2022/03/03 02:41:26;;;;;;;39.13;19.15;;;;;;;2.17;43.99;99935.00;4429053;32;34334;-74
2022/03/03 02:43:54;;;;;;;43.72;19.85;;;;;;;2.09;44.26;99943.03;4416021;32;33690;-75
2022/03/03 02:46:22;;;;;;;38.88;18.23;;;;;;;2.34;43.87;99943.34;4441415;32;33303;-74
2022/03/03 02:48:50;;;;;;;44.47;18.62;;;;;;;2.50;43.55;99941.69;4428441;32;32205;-74
2022/03/03 02:51:17;;;;;;;48.72;21.90;;;;;;;2.33;43.76;99934.38;4441047;32;34435;-74
2022/03/03 02:53:46;;;;;;;49.67;21.50;;;;;;;2.22;43.90;99939.97;4428373;32;32812;-74
2022/03/03 02:56:14;;;;;;;38.85;18.75;;;;;;;2.33;43.78;99934.38;4444833;32;34328;-74
2022/03/03 02:58:42;;;;;;;33.28;16.25;;;;;;;2.19;44.14;99932.16;4456554;32;33875;-74
2022/03/03 03:01:11;;;;;;;39.88;18.52;;;;;;;2.09;44.29;99929.50;4456372;32;33950;-74
2022/03/03 03:03:41;;;;;;;37.60;18.02;;;;;;;2.06;44.38;99935.19;4456599;32;33022;-74
2022/03/03 03:06:14;;;;;;;36.90;17.58;;;;;;;2.25;44.22;99932.41;4456502;32;33230;-74
2022/03/03 03:08:42;;;;;;;31.92;13.80;;;;;;;2.13;44.52;99922.78;4470803;32;33736;-74
2022/03/03 03:11:10;;;;;;;25.90;12.37;;;;;;;2.18;44.37;99920.47;4456491;32;32955;-74
2022/03/03 03:13:37;;;;;;;24.15;11.88;;;;;;;1.97;44.92;99923.41;4469236;32;34587;-74
2022/03/03 03:16:06;;;;;;;27.83;14.55;;;;;;;2.16;44.75;99927.03;4456485;32;31814;-74
2022/03/03 03:18:34;;;;;;;22.58;12.57;;;;;;;2.06;45.24;99931.63;4456632;32;33953;-74
2022/03/03 03:21:02;;;;;;;24.55;12.75;;;;;;;1.89;45.31;99925.19;4456512;32;35461;-74
2022/03/03 03:23:30;;;;;;;26.33;12.65;;;;;;;1.85;45.55;99921.91;4469366;32;34579;-74
2022/03/03 03:25:57;;;;;;;26.48;13.18;;;;;;;2.06;45.04;99920.81;4469305;32;33228;-74
2022/03/03 03:28:25;;;;;;;24.95;12.50;;;;;;;1.99;45.05;99915.13;4456455;32;33774;-74
2022/03/03 03:30:53;;;;;;;27.33;13.30;;;;;;;1.90;45.17;99932.28;4443571;32;32954;-77
2022/03/03 03:33:20;;;;;;;24.08;13.55;;;;;;;1.84;45.35;99931.03;4470475;32;33856;-73
2022/03/03 03:35:48;;;;;;;28.60;13.77;;;;;;;1.81;45.78;99931.31;4469091;32;33365;-75
2022/03/03 03:38:15;;;;;;;23.85;12.20;;;;;;;1.85;45.92;99931.87;4468960;32;33878;-75
2022/03/03 03:40:43;;;;;;;27.73;13.57;;;;;;;1.80;45.98;99921.50;4469248;32;35224;-74
2022/03/03 03:43:11;;;;;;;28.45;13.93;;;;;;;1.84;45.86;99932.87;4469034;32;33710;-74
2022/03/03 03:45:38;;;;;;;27.70;13.60;;;;;;;2.00;45.44;99927.66;4456083;32;32029;-74
2022/03/03 03:48:06;;;;;;;30.37;14.23;;;;;;;1.97;45.44;99931.53;4469150;32;33578;-74
2022/03/03 03:50:34;;;;;;;24.85;12.60;;;;;;;1.82;45.80;99922.22;4470181;32;34288;-74
2022/03/03 03:53:01;;;;;;;23.67;13.15;;;;;;;1.90;45.55;99926.88;4469141;32;33751;-74
2022/03/03 03:55:29;;;;;;;25.73;12.70;;;;;;;1.74;46.19;99934.75;4469145;32;33418;-74
2022/03/03 03:57:57;;;;;;;22.77;12.07;;;;;;;1.80;46.06;99932.31;4468984;32;33682;-74
2022/03/03 04:00:24;;;;;;;23.80;12.47;;;;;;;1.76;46.11;99924.66;4469029;32;34257;-74
2022/03/03 04:02:52;;;;;;;24.67;12.47;;;;;;;1.56;46.59;99932.81;4468909;32;33814;-75
2022/03/03 04:05:20;;;;;;;27.13;12.85;;;;;;;1.55;46.56;99930.25;4469031;32;33737;-74
2022/03/03 04:07:48;;;;;;;26.53;12.80;;;;;;;1.70;46.60;99936.06;4469098;32;33602;-74
2022/03/03 04:10:15;;;;;;;26.15;12.00;;;;;;;1.56;46.57;99930.09;4468593;32;34183;-74
2022/03/03 04:12:43;;;;;;;30.23;13.30;;;;;;;1.70;46.17;99923.38;4455918;32;33325;-74
2022/03/03 04:15:11;;;;;;;22.70;12.13;;;;;;;1.70;46.25;99923.38;4468982;32;31884;-74
2022/03/03 04:17:42;;;;;;;25.25;12.80;;;;;;;1.63;46.45;99920.41;4468899;32;33845;-74
2022/03/03 04:20:10;;;;;;;25.92;12.75;;;;;;;1.72;46.43;99921.38;4468890;32;34254;-74
2022/03/03 04:22:56;;;;;;;30.30;14.20;;;;;;;1.54;46.87;99921.28;4469068;32;33955;-74
2022/03/03 04:25:24;;;;;;;26.45;13.82;;;;;;;1.59;46.42;99913.59;4468555;32;33394;-74
2022/03/03 04:27:51;;;;;;;25.42;14.07;;;;;;;1.62;46.54;99920.56;4440234;32;35267;-74
2022/03/03 04:30:19;;;;;;;26.10;13.90;;;;;;;1.54;46.49;99920.44;4441997;32;34499;-74
2022/03/03 04:32:46;;;;;;;28.23;13.33;;;;;;;1.67;46.24;99914.72;4456005;32;32414;-74
2022/03/03 04:35:14;;;;;;;28.27;14.37;;;;;;;1.56;46.51;99904.91;4467786;32;34343;-74
2022/03/03 04:37:41;;;;;;;31.05;13.70;;;;;;;1.62;46.21;99913.28;4468434;32;34543;-74
2022/03/03 04:40:10;;;;;;;32.10;14.57;;;;;;;1.44;46.79;99908.78;4447903;32;34911;-74
2022/03/03 04:42:37;;;;;;;30.13;14.17;;;;;;;1.38;46.91;99893.97;4452579;32;33878;-75
2022/03/03 04:45:09;;;;;;;27.73;13.70;;;;;;;1.35;47.19;99898.81;4452976;32;34128;-75
2022/03/03 04:47:37;;;;;;;29.90;13.83;;;;;;;1.36;47.20;99908.66;4440780;32;33579;-75
2022/03/03 04:50:05;;;;;;;32.95;13.45;;;;;;;1.52;46.84;99907.06;4452016;32;35187;-75
2022/03/03 04:52:33;;;;;;;27.98;14.07;;;;;;;1.70;46.28;99911.72;4452764;32;33884;-75
2022/03/03 04:55:01;;;;;;;25.73;13.32;;;;;;;1.21;47.43;99908.28;4440357;32;34213;-74
2022/03/03 04:57:30;;;;;;;31.33;14.63;;;;;;;1.11;47.83;99913.69;4452913;32;33568;-75
2022/03/03 04:59:57;;;;;;;28.87;14.45;;;;;;;1.40;47.16;99916.31;4440107;32;34510;-74
2022/03/03 05:02:26;;;;;;;29.37;14.45;;;;;;;1.10;47.85;99916.53;4452704;32;34001;-75
2022/03/03 05:04:57;;;;;;;29.42;13.43;;;;;;;0.97;48.32;99912.25;4452822;32;33189;-75
2022/03/03 05:07:28;;;;;;;26.83;14.23;;;;;;;0.85;48.76;99904.44;4440044;32;33524;-75
2022/03/03 05:09:56;;;;;;;27.27;14.02;;;;;;;0.92;48.64;99898.31;4439626;32;33823;-76
2022/03/03 05:12:24;;;;;;;27.17;13.13;;;;;;;1.10;48.18;99909.28;4452323;32;34486;-75
2022/03/03 05:14:52;;;;;;;27.45;14.15;;;;;;;0.86;48.81;99904.28;4438102;32;33182;-75
2022/03/03 05:17:19;;;;;;;28.17;14.50;;;;;;;1.06;48.25;99910.56;4439210;32;33637;-75
2022/03/03 05:19:47;;;;;;;26.93;14.27;;;;;;;1.26;47.77;99903.28;4450862;32;35141;-74
2022/03/03 05:22:20;;;;;;;27.63;14.40;;;;;;;1.25;47.90;99901.56;4450221;32;34769;-74
2022/03/03 05:24:52;;;;;;;31.45;15.20;;;;;;;1.14;48.13;99907.13;4437135;32;32995;-74
2022/03/03 05:27:23;;;;;;;28.60;14.55;;;;;;;1.13;48.01;99892.78;4450377;32;33211;-74
2022/03/03 05:29:52;;;;;;;34.30;14.63;;;;;;;0.96;48.50;99898.88;4437682;32;33019;-73
2022/03/03 05:32:20;;;;;;;30.90;12.57;;;;;;;1.01;48.47;99903.88;4451777;32;34784;-74
2022/03/03 05:34:48;;;;;;;34.35;15.48;;;;;;;1.47;62.10;99912.03;4439841;32;31992;-73
2022/03/03 05:37:21;;;;;;;31.50;15.57;;;;;;;1.58;62.07;99920.00;4439658;32;32264;-74
2022/03/03 05:39:49;;;;;;;32.63;15.50;;;;;;;1.59;53.52;99910.88;4439692;32;33455;-73
2022/03/03 05:42:19;;;;;;;32.05;14.93;;;;;;;1.54;50.32;99907.75;4439424;32;32326;-73
2022/03/03 05:44:47;;;;;;;32.22;15.18;;;;;;;1.33;49.40;99901.69;4452266;32;33391;-73
2022/03/03 05:47:15;;;;;;;29.57;15.23;;;;;;;1.42;48.71;99900.81;4453271;32;33592;-74
2022/03/03 05:49:50;;;;;;;34.27;17.20;;;;;;;1.23;48.76;99901.72;4439427;32;33345;-74
2022/03/03 05:52:18;;;;;;;38.37;16.20;;;;;;;1.41;48.44;99903.66;4446130;32;33730;-74
2022/03/03 05:54:45;;;;;;;30.55;15.88;;;;;;;1.18;48.98;99903.16;4467715;32;33948;-74
2022/03/03 05:57:17;;;;;;;35.50;18.20;;;;;;;1.35;48.49;99899.69;4454737;32;33782;-74
2022/03/03 05:59:47;;;;;;;36.97;17.77;;;;;;;1.32;48.66;99900.81;4454732;32;34232;-74
2022/03/03 06:02:17;;;;;;;31.80;17.37;;;;;;;1.45;48.46;99905.94;4469619;32;33870;-74
2022/03/03 06:04:48;;;;;;;32.57;16.97;;;;;;;1.41;49.01;99915.31;4464339;32;32649;-74
2022/03/03 06:07:26;;;;;;;39.33;18.80;;;;;;;1.35;49.06;99905.09;4469718;32;33622;-74
2022/03/03 06:09:57;;;;;;;46.97;19.37;;;;;;;1.50;48.88;99917.16;4447526;32;35334;-74
2022/03/03 06:12:51;;;;;;;44.33;18.98;;;;;;;1.54;48.88;99920.44;4456862;32;33834;-74
2022/03/03 06:15:23;;;;;;;43.40;21.55;;;;;;;1.63;48.72;99920.41;4468961;32;33641;-74
2022/03/03 06:17:51;;;;;;;44.73;19.77;;;;;;;1.82;48.71;99924.06;4429705;32;32367;-74
2022/03/03 06:20:18;;;;;;;39.85;19.40;;;;;;;1.90;48.44;99922.31;4455908;32;35089;-74
2022/03/03 06:22:48;;;;;;;36.47;17.55;;;;;;;1.75;48.64;99907.56;4456216;32;34167;-74
2022/03/03 06:25:16;;;;;;;38.97;16.30;;;;;;;1.82;48.89;99918.66;4470091;32;33536;-74
2022/03/03 06:27:43;;;;;;;33.80;16.30;;;;;;;1.82;49.35;99905.97;4443570;32;32559;-74
2022/03/03 06:30:11;;;;;;;32.57;15.63;;;;;;;2.39;58.89;99913.97;4456518;32;34530;-75
2022/03/03 06:32:39;;;;;;;31.23;15.20;;;;;;;2.60;53.69;99915.38;4470767;32;33940;-75
2022/03/03 06:35:06;;;;;;;34.25;18.65;;;;;;;2.66;50.19;99913.91;4456723;32;33552;-74
2022/03/03 06:37:36;;;;;;;37.25;18.85;;;;;;;2.70;48.49;99909.87;4456917;32;34297;-74
2022/03/03 06:40:04;;;;;;;37.20;17.23;;;;;;;2.62;47.99;99913.38;4443777;32;32914;-75
2022/03/03 06:42:35;;;;;;;37.30;18.77;;;;;;;2.88;47.37;99913.47;4456696;32;34598;-75
2022/03/03 06:45:05;;;;;;;40.60;18.40;;;;;;;3.19;46.47;99922.06;4470344;32;34158;-75
2022/03/03 06:47:34;;;;;;;39.20;18.67;;;;;;;3.33;45.98;99934.19;4456768;32;34516;-75
2022/03/03 06:50:02;;;;;;;36.15;18.60;;;;;;;3.74;45.10;99927.22;4456548;32;34288;-74
2022/03/03 06:52:33;;;;;;;34.70;17.65;;;;;;;3.71;44.15;99930.25;4470562;32;34149;-74
2022/03/03 06:55:01;;;;;;;36.35;18.37;;;;;;;3.77;44.28;99928.78;4456644;32;33355;-74
2022/03/03 06:57:29;;;;;;;33.85;17.55;;;;;;;3.95;43.52;99930.38;4443722;32;33901;-75
2022/03/03 07:00:00;;;;;;;40.30;18.83;;;;;;;4.09;42.66;99922.66;4431004;32;33189;-74
2022/03/03 07:02:29;;;;;;;34.72;17.73;;;;;;;4.30;42.53;99923.97;4443881;32;34555;-75
2022/03/03 07:04:57;;;;;;;33.10;17.35;;;;;;;4.58;42.22;99921.84;4430909;32;31992;-75
2022/03/03 07:07:30;;;;;;;36.53;18.27;;;;;;;4.73;41.60;99927.50;4456314;32;32167;-75
2022/03/03 07:10:01;;;;;;;36.67;17.62;;;;;;;4.86;41.37;99919.72;4457023;32;34782;-75
2022/03/03 07:12:49;;;;;;;33.97;17.45;;;;;;;5.06;41.25;99924.84;4443056;32;32440;-74
2022/03/03 07:15:20;;;;;;;33.42;16.98;;;;;;;5.45;40.23;99925.87;4456528;32;33347;-75
2022/03/03 07:17:53;;;;;;;34.00;16.58;;;;;;;5.66;39.45;99919.06;4456448;32;34604;-75
2022/03/03 07:20:35;;;;;;;35.05;17.92;;;;;;;6.03;38.65;99919.34;4470685;32;34318;-75
2022/03/03 07:23:09;;;;;;;34.30;17.70;;;;;;;6.42;38.29;99926.72;4470419;32;33646;-75
2022/03/03 07:25:51;;;;;;;36.10;18.33;;;;;;;6.37;38.45;99918.22;4457217;32;34187;-74
2022/03/03 07:28:19;;;;;;;35.00;19.23;;;;;;;6.35;37.89;99921.12;4444571;32;33717;-75
2022/03/03 07:30:51;;;;;;;33.40;17.65;;;;;;;6.56;38.00;99915.91;4456291;32;34386;-75
2022/03/03 07:33:30;;;;;;;35.60;18.00;;;;;;;6.81;37.16;99919.34;4443600;32;32383;-75
2022/03/03 07:35:58;;;;;;;;;;;;;;;7.05;36.69;99920.25;4456643;32;33224;-75
2022/03/03 07:38:30;;;;;;;30.67;18.10;;;;;;;7.11;36.28;99908.59;4443605;32;33381;-75
2022/03/03 07:40:59;;;;;;;36.63;19.00;;;;;;;7.46;36.84;99918.88;4456596;32;34392;-75
2022/03/03 07:43:27;;;;;;;32.80;18.80;;;;;;;7.73;36.40;99909.25;4456253;32;34563;-75
2022/03/03 07:45:54;;;;;;;41.33;20.02;;;;;;;7.98;35.89;99909.84;4456650;32;33535;-76
2022/03/03 07:48:23;;;;;;;35.55;19.27;;;;;;;7.96;35.64;99891.94;4443430;32;32239;-76
2022/03/03 07:50:51;;;;;;;34.67;20.15;;;;;;;8.08;35.40;99893.16;4443304;32;33957;-75
2022/03/03 07:53:19;;;;;;;36.58;21.10;;;;;;;8.07;36.30;99895.06;4443427;32;34032;-75
2022/03/03 07:55:53;;;;;;;40.35;20.12;;;;;;;7.98;36.45;99889.88;4456010;32;31967;-75
2022/03/03 07:58:27;;;;;;;42.95;22.25;;;;;;;7.95;36.43;99891.09;4456658;32;33756;-78
2022/03/03 08:01:03;;;;;;;42.30;21.87;;;;;;;8.01;36.75;99889.50;4443545;32;32972;-75
2022/03/03 08:03:31;;;;;;;45.85;26.55;;;;;;;8.47;37.79;99879.22;4457878;32;34288;-76
2022/03/03 08:06:01;;;;;;;43.60;23.83;;;;;;;8.69;36.54;99889.16;4455968;32;31950;-76
2022/03/03 08:08:32;;;;;;;38.47;21.30;;;;;;;8.66;35.59;99880.50;4469079;32;33576;-76
2022/03/03 08:11:05;;;;;;;37.50;19.52;;;;;;;8.87;36.06;99884.13;4456378;32;35305;-76
2022/03/03 08:13:33;;;;;;;37.38;20.02;;;;;;;9.04;36.25;99886.63;4456217;32;32481;-76
2022/03/03 08:16:03;;;;;;;32.97;18.27;;;;;;;8.78;34.66;99879.81;4456233;32;34318;-76
2022/03/03 08:18:35;;;;;;;38.25;18.60;;;;;;;9.07;34.60;99881.63;4453886;32;33389;-76
2022/03/03 08:21:06;;;;;;;37.20;17.75;;;;;;;9.33;34.42;99881.00;4469351;32;35367;-76
2022/03/03 08:23:34;;;;;;;27.98;14.18;;;;;;;9.28;35.15;99871.69;4455732;32;32395;-76
2022/03/03 08:26:02;;;;;;;23.10;13.23;;;;;;;9.67;34.15;99879.41;4455406;32;33192;-76
2022/03/03 08:28:31;;;;;;;26.02;12.55;;;;;;;9.89;32.78;99867.31;4469142;32;33713;-76
2022/03/03 08:31:05;;;;;;;24.42;13.40;;;;;;;9.97;33.21;99856.22;4469016;32;34679;-76
2022/03/03 08:33:41;;;;;;;29.23;13.38;;;;;;;10.22;32.68;99860.19;4469049;32;32463;-76
2022/03/03 08:36:19;;;;;;;26.75;13.27;;;;;;;10.48;33.18;99864.94;4456485;32;34013;-76
2022/03/03 08:38:51;;;;;;;20.60;12.30;;;;;;;10.59;32.20;99860.78;4469072;32;34728;-76
2022/03/03 08:41:22;;;;;;;24.50;12.30;;;;;;;11.07;31.25;99868.94;4455880;32;33044;-76
2022/03/03 08:43:52;;;;;;;23.98;11.93;;;;;;;10.54;31.57;99863.28;4468851;32;34234;-77
2022/03/03 08:46:24;;;;;;;24.10;13.00;;;;;;;10.68;31.30;99851.31;4468819;32;31918;-76
2022/03/03 08:48:53;;;;;;;23.33;11.70;;;;;;;10.98;31.05;99853.72;4456027;32;32291;-76
2022/03/03 08:51:21;;;;;;;23.95;12.10;;;;;;;10.85;30.71;99855.38;4469841;32;35263;-77
2022/03/03 08:53:48;;;;;;;21.85;11.80;;;;;;;10.60;31.25;99862.47;4469923;32;34139;-76
2022/03/03 08:56:16;;;;;;;33.53;20.90;;;;;;;11.11;30.23;99856.47;4469933;32;33401;-76
2022/03/03 08:58:44;;;;;;;34.75;21.95;;;;;;;11.15;30.00;99849.50;4443170;32;33004;-77
2022/03/03 09:01:12;;;;;;;23.85;11.75;;;;;;;11.40;30.37;99845.09;4443142;32;32880;-77
2022/03/03 09:03:40;;;;;;;19.67;11.48;;;;;;;11.69;29.78;99843.00;4468595;32;33907;-77
2022/03/03 09:06:08;;;;;;;25.58;12.70;;;;;;;11.77;29.50;99853.78;4469502;32;34475;-77
2022/03/03 09:08:35;;;;;;;22.20;13.02;;;;;;;12.06;28.68;99849.75;4456000;32;34023;-77
2022/03/03 09:11:05;;;;;;;22.77;12.15;;;;;;;11.94;29.35;99851.44;4455639;32;33891;-77
2022/03/03 09:13:33;;;;;;;20.80;12.15;;;;;;;11.97;28.97;99854.63;4443042;32;32612;-77
2022/03/03 09:16:00;;;;;;;19.50;10.70;;;;;;;12.21;28.85;99850.34;4468458;32;33247;-77
2022/03/03 09:18:28;;;;;;;21.40;12.02;;;;;;;12.38;30.71;99848.78;4468474;32;33869;-77
2022/03/03 09:20:56;;;;;;;23.92;11.82;;;;;;;12.63;28.51;99851.66;4468395;32;34595;-77
2022/03/03 09:23:23;;;;;;;22.52;12.02;;;;;;;12.49;28.45;99856.37;4455405;32;33523;-77
2022/03/03 09:25:51;;;;;;;23.75;11.65;;;;;;;12.63;28.76;99859.91;4455745;32;33307;-77
2022/03/03 09:28:18;;;;;;;24.15;12.98;;;;;;;12.91;27.91;99861.50;4442710;32;32675;-76
2022/03/03 09:30:46;;;;;;;19.87;12.30;;;;;;;12.92;28.21;99847.50;4455618;32;35501;-77
2022/03/03 09:33:27;;;;;;;24.87;13.80;;;;;;;13.05;28.19;99857.56;4468357;32;33781;-77
2022/03/03 09:35:54;;;;;;;20.00;12.43;;;;;;;13.22;27.96;99846.91;4470911;32;33602;-78
2022/03/03 09:38:23;;;;;;;23.25;12.65;;;;;;;13.48;27.17;99847.56;4457823;32;32169;-77
2022/03/03 09:40:51;;;;;;;26.77;14.07;;;;;;;13.72;27.03;99842.25;4457348;32;34247;-77
2022/03/03 09:43:18;;;;;;;25.10;13.70;;;;;;;13.77;27.04;99842.41;4457324;32;33418;-76
2022/03/03 09:45:50;;;;;;;24.67;14.10;;;;;;;14.09;26.56;99840.41;4470048;32;33585;-77
2022/03/03 09:48:18;;;;;;;20.70;12.50;;;;;;;14.20;26.10;99838.81;4457448;32;33917;-77
2022/03/03 09:50:45;;;;;;;21.52;11.85;;;;;;;14.36;25.99;99836.28;4457404;32;34417;-77
2022/03/03 09:53:17;;;;;;;19.42;11.12;;;;;;;14.56;25.78;99830.56;4470029;32;33862;-77
2022/03/03 09:55:46;;;;;;;17.40;9.70;;;;;;;14.47;25.78;99834.69;4470168;32;33254;-76
2022/03/03 09:58:14;;;;;;;18.05;9.38;;;;;;;14.47;25.79;99834.69;4457131;32;32323;-77
2022/03/03 10:00:44;;;;;;;14.80;9.32;;;;;;;14.71;25.17;99830.16;4457216;32;35211;-77
2022/03/03 10:03:17;;;;;;;16.65;9.93;;;;;;;14.69;24.59;99833.16;4454476;32;32184;-77
2022/03/03 10:05:49;;;;;;;17.75;10.10;;;;;;;14.64;25.47;99835.75;4441641;32;31927;-76
2022/03/03 10:08:25;;;;;;;18.23;10.93;;;;;;;14.61;24.63;99829.84;4441638;32;32269;-76
2022/03/03 10:10:58;;;;;;;15.98;9.48;;;;;;;14.20;24.88;99822.25;4454579;32;35097;-76
2022/03/03 10:13:26;;;;;;;16.30;9.57;;;;;;;14.58;25.52;99825.63;4454539;32;34814;-76
2022/03/03 10:15:56;;;;;;;21.05;11.35;;;;;;;14.79;24.79;99830.69;4454383;32;34013;-76
2022/03/03 10:18:24;;;;;;;20.95;11.30;;;;;;;14.45;24.98;99823.88;4441608;32;32426;-76
2022/03/03 10:20:56;;;;;;;18.58;10.45;;;;;;;14.17;25.56;99832.69;4454292;32;34387;-77
2022/03/03 10:23:30;;;;;;;18.05;10.45;;;;;;;14.30;25.33;99833.63;4454338;32;32555;-76
2022/03/03 10:25:59;;;;;;;17.95;10.10;;;;;;;14.66;25.68;99824.47;4428775;32;33672;-77
2022/03/03 10:28:31;;;;;;;23.73;13.62;;;;;;;14.69;25.46;99826.78;4454449;32;33407;-76
2022/03/03 10:31:09;;;;;;;23.10;13.55;;;;;;;14.60;27.56;99817.97;4454195;32;34185;-76
2022/03/03 10:33:45;;;;;;;18.70;10.05;;;;;;;14.73;25.27;99819.72;4454393;32;33819;-76
2022/03/03 10:36:19;;;;;;;19.17;10.75;;;;;;;14.62;25.27;99814.97;4441698;32;32371;-75
2022/03/03 10:39:01;;;;;;;19.67;10.73;;;;;;;14.87;25.00;99815.69;4454175;32;33655;-77
2022/03/03 10:41:38;;;;;;;20.12;10.57;;;;;;;15.04;25.58;99818.63;4441366;32;32989;-76
2022/03/03 10:44:08;;;;;;;18.00;10.00;;;;;;;15.03;24.57;99805.88;4454561;32;33937;-76
2022/03/03 10:46:39;;;;;;;33.95;19.05;;;;;;;15.30;25.12;99798.88;4453855;32;33486;-76
2022/03/03 10:49:40;;;;;;;17.60;9.68;;;;;;;14.85;24.87;99808.72;4440887;32;32363;-76
2022/03/03 10:52:12;;;;;;;18.08;10.25;;;;;;;15.06;24.32;99802.66;4430347;32;34499;-76
2022/03/03 10:54:49;;;;;;;19.95;10.60;;;;;;;14.97;24.54;99793.84;4456631;32;34217;-77
2022/03/03 10:57:56;;;;;;;20.75;9.82;;;;;;;14.60;24.78;99784.81;4436746;32;232615;-78
2022/03/03 11:00:26;;;;;;;20.27;10.88;;;;;;;14.79;25.29;99785.63;4457202;32;34480;-78
2022/03/03 11:02:56;;;;;;;17.58;10.15;;;;;;;14.61;25.30;99780.13;4443929;32;34166;-78
2022/03/03 11:05:26;;;;;;;18.90;10.85;;;;;;;14.31;25.59;99783.66;4456679;32;34804;-78
2022/03/03 11:07:56;;;;;;;19.52;10.43;;;;;;;14.44;26.18;99786.28;4444009;32;33649;-77
2022/03/03 11:10:27;;;;;;;18.17;10.15;;;;;;;14.46;25.48;99777.78;4444444;32;33486;-78
2022/03/03 11:12:55;;;;;;;18.08;10.93;;;;;;;14.12;25.78;99782.00;4443310;32;33988;-78
2022/03/03 11:15:24;;;;;;;16.45;10.05;;;;;;;14.00;25.71;99770.03;4456766;32;34760;-78
2022/03/03 11:17:53;;;;;;;17.83;10.60;;;;;;;13.83;26.26;99762.34;4456642;32;33571;-77
2022/03/03 11:20:23;;;;;;;17.48;9.70;;;;;;;13.61;25.93;99761.12;4443951;32;33798;-74
2022/03/03 11:22:56;;;;;;;20.05;10.98;;;;;;;13.95;26.88;99753.31;4462385;32;34242;-74
2022/03/03 11:25:32;;;;;;;19.65;11.15;;;;;;;13.95;26.49;99756.09;4454650;32;34202;-76
2022/03/03 11:28:04;;;;;;;161.05;66.10;;;;;;;14.12;28.63;99759.94;4469672;32;33410;-76
2022/03/03 11:30:32;;;;;;;23.42;12.98;;;;;;;13.99;26.57;99747.13;4469646;32;33868;-75
2022/03/03 11:33:18;;;;;;;68.22;35.65;;;;;;;14.00;26.49;99751.56;4456442;32;32943;-75